Terminal Aerodrome Forecast
Issued by NWS Bismarck, ND

Home | Current Version | Previous Version | Graphics & Text | Print | Product List | Glossary On
Versions: 1 2 3 4 5 6 7 8 9 10 11 12 13 14 15 16 17 18 19 20 21 22 23 24 25 26 27
298
FTUS43 KBIS 220225 AAA
TAFBIS
TAF AMD
KBIS 220225Z 2202/2224 05011KT P6SM SCT200
     FM221500 07014G20KT P6SM SCT070 BKN130
     FM222000 08016G23KT P6SM BKN080=

USA.gov is the U.S. government's official web portal to all federal, state and local government web resources and services.